This is the latest recevied weather packets stored in our database for station/object SP3SWJ-13. If no packets are shown the sender has not sent any weather packets the latest 10 day(s).
| Time | Temp. | Humidity | Pressure | Rain* | Wind** | Luminosity | Snow |
|---|---|---|---|---|---|---|---|
| 1777884011 | 21.67° C | 46% | 1003.7 hPa | - | - | 257 W/m² | - |
| 1777883710 | 21.67° C | 46% | 1003.6 hPa | - | - | 252 W/m² | - |
| 1777883409 | 21.11° C | 47% | 1003.6 hPa | - | - | 215 W/m² | - |
| 1777883109 | 21.11° C | 45% | 1003.5 hPa | - | - | 194 W/m² | - |
| 1777882808 | 21.11° C | 46% | 1003.4 hPa | - | - | 229 W/m² | - |
| 1777882507 | 21.11° C | 44% | 1003.2 hPa | - | - | 184 W/m² | - |
| 1777882205 | 21.11° C | 44% | 1003.4 hPa | - | - | 265 W/m² | - |
| 1777881905 | 20.56° C | 45% | 1003.5 hPa | - | - | 407 W/m² | - |
| 1777881603 | 20.56° C | 47% | 1003.4 hPa | - | - | 168 W/m² | - |
| 1777881303 | 21.11° C | 46% | 1003.3 hPa | - | - | 141 W/m² | - |
| 1777881002 | 21.11° C | 45% | 1003.1 hPa | - | - | 149 W/m² | - |
| 1777880700 | 20.56° C | 46% | 1003.1 hPa | - | - | 159 W/m² | - |
| 1777880399 | 20.56° C | 46% | 1003 hPa | - | - | 146 W/m² | - |
| 1777880098 | 20.56° C | 45% | 1003 hPa | - | - | 182 W/m² | - |
| 1777879798 | 20.56° C | 45% | 1003 hPa | - | - | 226 W/m² | - |
| 1777879496 | 20.56° C | 44% | 1003 hPa | - | - | 239 W/m² | - |
| 1777879195 | 20.56° C | 45% | 1003 hPa | - | - | 212 W/m² | - |
| 1777878895 | 20° C | 45% | 1003.1 hPa | - | - | 185 W/m² | - |
| 1777878593 | 20° C | 46% | 1003.2 hPa | - | - | 238 W/m² | - |
| 1777878293 | 20° C | 46% | 1003.2 hPa | - | - | 238 W/m² | - |
| 1777877992 | 20° C | 45% | 1003.3 hPa | - | - | 345 W/m² | - |
| 1777877691 | 20° C | 45% | 1003.3 hPa | - | - | 365 W/m² | - |
| 1777877390 | 19.44° C | 45% | 1003.3 hPa | - | - | 366 W/m² | - |
| 1777877089 | 19.44° C | 45% | 1003.2 hPa | - | - | 329 W/m² | - |
| 1777876788 | 19.44° C | 46% | 1003.3 hPa | - | - | 306 W/m² | - |
* Rain since midnight (hover to see other rain measurements)
** Current wind speed in m/s (hover to see current wind gust speed)